Time;durP1;ratioP1;P1;durP2;ratioP2;P2;SDS_P1;SDS_P2;PMS_P1;PMS_P2;Temp;Humidity;BMP_temperature;BMP_pressure;BME280_temperature;BME280_humidity;BME280_pressure;Samples;Min_cycle;Max_cycle;Signal;HPM_P1;HPM_P2
2022/12/10 00:02:17;;;;;;;6.18;4.75;;;18.50;50.60;;;;;;5048037;28;20057;-41
2022/12/10 00:04:44;;;;;;;8.20;5.03;;;18.50;50.60;;;;;;5048683;28;20043;-42
2022/12/10 00:07:11;;;;;;;6.75;5.32;;;18.50;50.60;;;;;;5048065;28;20057;-42
2022/12/10 00:09:39;;;;;;;6.68;5.68;;;18.50;50.70;;;;;;5047632;28;20041;-41
2022/12/10 00:12:06;;;;;;;7.18;6.03;;;18.50;50.70;;;;;;5047522;28;20052;-41
2022/12/10 00:14:33;;;;;;;7.15;4.25;;;18.50;50.80;;;;;;5044752;28;20033;-41
2022/12/10 00:17:00;;;;;;;5.55;4.75;;;18.40;50.80;;;;;;5047968;28;20107;-41
2022/12/10 00:19:27;;;;;;;4.95;4.38;;;18.40;50.90;;;;;;5048131;28;20648;-41
2022/12/10 00:21:55;;;;;;;5.35;4.85;;;18.40;50.90;;;;;;5047905;28;20079;-41
2022/12/10 00:24:22;;;;;;;5.05;4.55;;;18.40;51.00;;;;;;5048011;28;20041;-41
2022/12/10 00:26:50;;;;;;;4.88;4.18;;;18.40;51.00;;;;;;5047970;28;20048;-44
2022/12/10 00:29:17;;;;;;;6.28;4.53;;;18.40;51.10;;;;;;5048117;28;20581;-40
2022/12/10 00:31:44;;;;;;;6.88;4.35;;;18.40;51.10;;;;;;5047643;28;20720;-41
2022/12/10 00:34:13;;;;;;;4.13;3.80;;;18.30;51.10;;;;;;5031420;28;20037;-41
2022/12/10 00:36:43;;;;;;;7.00;5.13;;;18.30;51.30;;;;;;5047754;28;20127;-40
2022/12/10 00:39:11;;;;;;;4.50;4.10;;;18.30;51.40;;;;;;5047756;28;20045;-40
2022/12/10 00:41:39;;;;;;;4.78;4.28;;;18.30;51.40;;;;;;5047962;28;20481;-41
2022/12/10 00:44:08;;;;;;;5.22;4.70;;;18.30;51.40;;;;;;5047763;28;20497;-40
2022/12/10 00:46:35;;;;;;;4.78;4.32;;;18.30;51.60;;;;;;5046972;28;20044;-41
2022/12/10 00:49:03;;;;;;;5.90;4.07;;;18.30;51.60;;;;;;5047883;28;20045;-40
2022/12/10 00:51:30;;;;;;;5.85;4.93;;;18.30;51.70;;;;;;5047368;28;20037;-41
2022/12/10 00:53:59;;;;;;;4.93;3.72;;;18.30;51.80;;;;;;5047686;28;20045;-41
2022/12/10 00:56:30;;;;;;;7.18;4.40;;;18.30;51.80;;;;;;5047556;28;20043;-40
2022/12/10 00:58:57;;;;;;;6.90;4.70;;;18.30;51.80;;;;;;5047186;28;20749;-41
2022/12/10 01:01:27;;;;;;;5.00;4.53;;;18.30;51.90;;;;;;5047770;28;20123;-41
2022/12/10 01:03:57;;;;;;;7.28;4.72;;;18.30;51.90;;;;;;5047358;28;20638;-41
2022/12/10 01:06:26;;;;;;;5.07;3.97;;;18.30;52.50;;;;;;5047201;28;20033;-43
2022/12/10 01:08:56;;;;;;;5.07;4.68;;;18.20;51.90;;;;;;5047208;28;20041;-41
2022/12/10 01:11:27;;;;;;;5.20;4.47;;;18.20;52.00;;;;;;5047350;28;20194;-40
2022/12/10 01:13:54;;;;;;;7.68;4.55;;;18.30;52.10;;;;;;5047200;28;20454;-41
2022/12/10 01:16:23;;;;;;;6.30;4.80;;;18.20;52.10;;;;;;5045994;28;20040;-41
2022/12/10 01:18:54;;;;;;;5.72;4.28;;;18.20;52.00;;;;;;5045731;28;20044;-41
2022/12/10 01:21:22;;;;;;;4.03;3.60;;;18.20;52.10;;;;;;5047149;28;20505;-42
2022/12/10 01:23:51;;;;;;;8.45;4.47;;;18.20;52.10;;;;;;5047392;28;20037;-41
2022/12/10 01:26:21;;;;;;;4.65;3.78;;;18.20;52.10;;;;;;5047052;28;20195;-41
2022/12/10 01:28:49;;;;;;;5.30;4.38;;;18.20;52.10;;;;;;5050757;28;20085;-41
2022/12/10 01:31:19;;;;;;;4.13;3.58;;;18.20;52.10;;;;;;5051376;28;20493;-41
2022/12/10 01:33:47;;;;;;;6.97;4.63;;;18.20;52.20;;;;;;5051090;28;20045;-43
2022/12/10 01:36:19;;;;;;;5.95;4.05;;;18.20;52.20;;;;;;5051109;28;20045;-41
2022/12/10 01:38:47;;;;;;;5.15;4.75;;;18.20;52.20;;;;;;5051376;28;20091;-42
2022/12/10 01:41:16;;;;;;;6.93;4.90;;;18.20;52.20;;;;;;5033430;28;20140;-41
2022/12/10 01:43:52;;;;;;;4.78;4.38;;;18.20;52.20;;;;;;5050840;28;20041;-41
2022/12/10 01:46:20;;;;;;;6.53;4.10;;;18.20;52.20;;;;;;5049433;28;20087;-41
2022/12/10 01:48:47;;;;;;;8.70;5.55;;;18.20;52.30;;;;;;5051104;28;20596;-41
2022/12/10 01:51:16;;;;;;;3.97;3.58;;;18.20;52.40;;;;;;5049406;28;20049;-42
2022/12/10 01:53:44;;;;;;;7.78;4.05;;;18.20;52.40;;;;;;5049740;28;20444;-42
2022/12/10 01:56:12;;;;;;;6.75;5.85;;;18.20;52.40;;;;;;5050872;28;20041;-42
2022/12/10 01:58:40;;;;;;;6.53;5.10;;;18.10;52.30;;;;;;5049209;28;20041;-42
2022/12/10 02:01:11;;;;;;;4.75;4.20;;;18.10;52.30;;;;;;5049509;28;20056;-42
2022/12/10 02:03:52;;;;;;;4.90;4.07;;;18.10;52.30;;;;;;5050910;28;20115;-42
2022/12/10 02:06:33;;;;;;;4.00;3.47;;;18.10;52.20;;;;;;5050105;28;20045;-42
2022/12/10 02:09:13;;;;;;;3.95;3.55;;;18.20;52.20;;;;;;5050724;28;20751;-46
2022/12/10 02:11:46;;;;;;;4.25;3.38;;;18.10;52.10;;;;;;5049220;28;20049;-42
2022/12/10 02:14:20;;;;;;;3.90;3.55;;;18.10;52.10;;;;;;5047899;28;20057;-42
2022/12/10 02:16:59;;;;;;;6.13;4.50;;;18.10;52.00;;;;;;5048791;28;20405;-42
2022/12/10 02:19:35;;;;;;;3.85;3.45;;;18.10;52.00;;;;;;5049110;28;20043;-42
2022/12/10 02:22:05;;;;;;;4.13;3.55;;;18.10;51.90;;;;;;5050240;28;20052;-42
2022/12/10 02:24:37;;;;;;;7.03;4.53;;;18.10;51.90;;;;;;5049131;28;20064;-41
2022/12/10 02:27:09;;;;;;;4.00;3.45;;;18.10;51.80;;;;;;5049816;28;20063;-41
2022/12/10 02:29:38;;;;;;;5.28;3.72;;;18.10;51.80;;;;;;5049020;28;20045;-41
2022/12/10 02:32:09;;;;;;;6.75;4.75;;;18.10;51.70;;;;;;5048881;28;20696;-41
2022/12/10 02:34:41;;;;;;;4.90;4.50;;;18.10;51.60;;;;;;5065566;28;20417;-41
2022/12/10 02:37:13;;;;;;;6.50;4.53;;;18.10;51.70;;;;;;5036035;28;20451;-41
2022/12/10 02:39:46;;;;;;;4.18;3.83;;;18.10;51.70;;;;;;5030345;28;20049;-41
2022/12/10 02:42:16;;;;;;;6.22;4.53;;;18.10;51.70;;;;;;5028493;28;20049;-42
2022/12/10 02:44:48;;;;;;;5.03;4.07;;;18.10;51.70;;;;;;5028821;28;20041;-41
2022/12/10 02:47:20;;;;;;;7.18;4.35;;;18.10;51.80;;;;;;5045015;28;20041;-42
2022/12/10 02:49:50;;;;;;;3.97;3.58;;;18.10;51.80;;;;;;5048756;28;20052;-42
2022/12/10 02:52:20;;;;;;;4.57;4.15;;;18.10;51.80;;;;;;5048416;28;20071;-42
2022/12/10 02:54:51;;;;;;;6.00;3.90;;;18.10;51.80;;;;;;5048560;28;20296;-42
2022/12/10 02:57:32;;;;;;;3.35;3.05;;;18.00;51.70;;;;;;5048621;28;20517;-42
2022/12/10 03:00:16;;;;;;;5.80;4.50;;;18.00;52.30;;;;;;5048616;28;20049;-41
2022/12/10 03:03:06;;;;;;;6.35;5.22;;;18.00;51.60;;;;;;5048662;28;20041;-42
2022/12/10 03:05:39;;;;;;;7.15;4.20;;;18.10;51.70;;;;;;5049691;28;20433;-42
2022/12/10 03:08:14;;;;;;;5.00;4.03;;;18.00;51.70;;;;;;5049630;28;20052;-42
2022/12/10 03:10:48;;;;;;;6.25;4.55;;;18.00;51.60;;;;;;5049448;28;20128;-42
2022/12/10 03:13:18;;;;;;;6.80;4.80;;;18.00;51.60;;;;;;5049601;28;20064;-42
2022/12/10 03:15:48;;;;;;;5.43;4.93;;;18.00;52.20;;;;;;5049441;28;20517;-41
2022/12/10 03:18:19;;;;;;;5.72;4.43;;;18.00;51.60;;;;;;5049555;28;20720;-42
2022/12/10 03:20:47;;;;;;;5.22;4.72;;;18.00;51.50;;;;;;5049711;28;20550;-42
2022/12/10 03:23:19;;;;;;;4.25;3.85;;;18.00;51.50;;;;;;5049201;28;20037;-42
2022/12/10 03:25:48;;;;;;;4.35;3.90;;;18.00;51.50;;;;;;5048784;28;20064;-42
2022/12/10 03:28:17;;;;;;;4.50;4.10;;;18.00;51.40;;;;;;5049350;28;20139;-43
2022/12/10 03:30:47;;;;;;;4.25;3.85;;;18.00;51.40;;;;;;5049441;28;20037;-42
2022/12/10 03:33:15;;;;;;;5.00;4.32;;;18.00;51.30;;;;;;5049252;28;20103;-42
2022/12/10 03:35:42;;;;;;;4.57;4.18;;;18.00;51.30;;;;;;5047763;28;20136;-42
2022/12/10 03:38:10;;;;;;;5.15;4.35;;;18.00;51.30;;;;;;5049123;28;20084;-42
2022/12/10 03:40:37;;;;;;;5.28;4.78;;;18.00;51.20;;;;;;5049191;28;20051;-42
2022/12/10 03:43:04;;;;;;;4.00;3.65;;;18.00;51.20;;;;;;5049183;28;20142;-40
2022/12/10 03:45:32;;;;;;;5.32;4.00;;;18.00;51.10;;;;;;5049084;28;20040;-40
2022/12/10 03:48:00;;;;;;;4.18;3.80;;;18.00;51.10;;;;;;5048770;28;20071;-42
2022/12/10 03:50:27;;;;;;;3.80;3.35;;;18.00;51.00;;;;;;5048325;28;20140;-40
2022/12/10 03:52:54;;;;;;;4.03;3.03;;;18.00;51.00;;;;;;5048384;28;20122;-42
2022/12/10 03:55:21;;;;;;;3.17;2.85;;;18.00;51.00;;;;;;5048880;28;20071;-42
2022/12/10 03:57:49;;;;;;;4.10;3.67;;;18.00;51.00;;;;;;5048580;28;20053;-42
2022/12/10 04:00:16;;;;;;;3.22;2.92;;;18.00;51.00;;;;;;5047597;28;20055;-42
2022/12/10 04:02:43;;;;;;;3.72;2.72;;;18.00;51.00;;;;;;5048676;28;20052;-42
2022/12/10 04:05:12;;;;;;;6.40;3.75;;;18.00;51.00;;;;;;5049221;28;20357;-42
2022/12/10 04:07:39;;;;;;;3.50;3.22;;;18.00;51.00;;;;;;5047650;28;20144;-41
2022/12/10 04:10:06;;;;;;;4.72;3.20;;;18.00;50.90;;;;;;5048751;28;20041;-42
2022/12/10 04:12:33;;;;;;;4.18;3.65;;;18.00;51.00;;;;;;5047970;28;20090;-42
2022/12/10 04:17:45;;;;;;;3.22;2.63;;;18.00;50.90;;;;;;5045194;28;20198;-41
2022/12/10 04:28:22;;;;;;;3.28;2.95;;;17.90;50.90;;;;;;4987107;28;20050;-42
2022/12/10 04:30:50;;;;;;;3.08;2.88;;;17.90;50.90;;;;;;4987351;28;20512;-43
2022/12/10 04:33:17;;;;;;;3.10;2.90;;;17.90;50.80;;;;;;4986551;28;20058;-42
2022/12/10 04:35:45;;;;;;;3.75;3.17;;;17.90;50.80;;;;;;4986673;28;20038;-42
2022/12/10 04:38:13;;;;;;;2.95;2.80;;;17.90;50.80;;;;;;4986436;28;20046;-41
2022/12/10 04:40:40;;;;;;;3.13;2.67;;;17.90;51.40;;;;;;4986138;28;20058;-41
2022/12/10 04:43:07;;;;;;;4.80;2.78;;;17.90;50.70;;;;;;4986091;28;20161;-41
2022/12/10 04:45:36;;;;;;;2.05;1.95;;;17.90;50.70;;;;;;4985789;28;20198;-42
2022/12/10 04:48:03;;;;;;;2.67;2.47;;;17.90;50.70;;;;;;4985808;28;20081;-42
2022/12/10 04:50:30;;;;;;;3.95;3.25;;;17.90;50.70;;;;;;4985852;28;20085;-42
2022/12/10 04:52:58;;;;;;;3.35;2.58;;;17.90;50.60;;;;;;4985125;28;21134;-42
2022/12/10 04:55:25;;;;;;;2.38;2.17;;;17.90;50.60;;;;;;4985923;28;20626;-42
2022/12/10 04:57:52;;;;;;;3.17;2.53;;;18.00;50.60;;;;;;4985796;28;20506;-42
2022/12/10 05:00:20;;;;;;;2.97;2.72;;;17.90;50.50;;;;;;4985233;28;20153;-41
2022/12/10 05:02:49;;;;;;;4.20;2.75;;;18.00;50.60;;;;;;4984599;28;20074;-42
2022/12/10 05:05:16;;;;;;;4.50;2.92;;;18.00;50.50;;;;;;5008060;28;20041;-42
2022/12/10 05:07:43;;;;;;;3.72;2.65;;;18.00;50.50;;;;;;5046970;28;20076;-42
2022/12/10 05:10:12;;;;;;;2.17;2.08;;;18.00;50.50;;;;;;5047478;28;20045;-42
2022/12/10 05:12:39;;;;;;;2.42;2.22;;;18.00;50.50;;;;;;5047524;28;20037;-42
2022/12/10 05:15:07;;;;;;;2.17;2.08;;;18.00;50.40;;;;;;5047128;28;20044;-42
2022/12/10 05:17:35;;;;;;;2.88;2.67;;;18.00;50.40;;;;;;5047443;28;20377;-42
2022/12/10 05:20:02;;;;;;;3.13;2.78;;;18.00;50.40;;;;;;5047121;28;20118;-42
2022/12/10 05:25:15;;;;;;;2.28;2.08;;;18.00;50.30;;;;;;5047277;28;20052;-42
2022/12/10 05:27:42;;;;;;;2.50;1.98;;;18.00;50.30;;;;;;5047117;28;20068;-42
2022/12/10 05:30:11;;;;;;;3.22;2.58;;;17.90;50.20;;;;;;5047102;28;20040;-42
2022/12/10 05:32:38;;;;;;;2.22;2.03;;;18.00;50.30;;;;;;5047034;28;20049;-42
2022/12/10 05:35:06;;;;;;;2.75;2.17;;;18.00;50.20;;;;;;5046717;28;20053;-42
2022/12/10 05:37:34;;;;;;;2.83;1.73;;;18.00;50.20;;;;;;5046912;28;20116;-42
2022/12/10 05:40:01;;;;;;;2.33;2.03;;;18.00;50.20;;;;;;5047280;28;20041;-42
2022/12/10 05:42:29;;;;;;;3.05;2.10;;;17.90;50.10;;;;;;5047019;28;20052;-42
2022/12/10 05:44:56;;;;;;;2.28;2.13;;;18.00;50.10;;;;;;5046778;28;20514;-42
2022/12/10 05:47:23;;;;;;;2.13;1.77;;;17.90;50.00;;;;;;5047075;28;20110;-41
2022/12/10 05:49:50;;;;;;;4.93;2.17;;;18.00;50.10;;;;;;5046659;28;20037;-41
2022/12/10 05:52:17;;;;;;;2.38;2.17;;;18.00;50.00;;;;;;5046848;28;20041;-41
2022/12/10 05:54:44;;;;;;;2.20;1.42;;;17.90;50.00;;;;;;5047133;28;20053;-40
2022/12/10 05:57:12;;;;;;;2.63;2.42;;;17.90;49.90;;;;;;5047187;28;20037;-41
2022/12/10 05:59:41;;;;;;;2.13;1.92;;;18.00;49.90;;;;;;5047069;28;20037;-41
2022/12/10 06:02:08;;;;;;;2.65;2.30;;;17.90;49.80;;;;;;5046956;28;20051;-42
2022/12/10 06:04:35;;;;;;;2.30;1.77;;;17.90;49.80;;;;;;5046748;28;20038;-41
2022/12/10 06:07:02;;;;;;;1.98;1.88;;;17.90;49.80;;;;;;5046188;28;20051;-41
2022/12/10 06:09:29;;;;;;;1.98;1.88;;;17.90;49.80;;;;;;5046392;28;20049;-41
2022/12/10 06:11:56;;;;;;;1.60;1.42;;;17.90;49.80;;;;;;5042310;28;20033;-41
2022/12/10 06:14:23;;;;;;;2.15;1.95;;;17.90;49.70;;;;;;5049681;28;20076;-40
2022/12/10 06:16:51;;;;;;;2.05;1.85;;;18.00;49.70;;;;;;5050458;28;20520;-40
2022/12/10 06:19:18;;;;;;;3.17;1.63;;;17.90;49.60;;;;;;5048799;28;20049;-40
2022/12/10 06:21:45;;;;;;;1.95;1.60;;;17.90;49.60;;;;;;5050270;28;20218;-40
2022/12/10 06:24:12;;;;;;;2.85;1.58;;;17.90;49.60;;;;;;5050374;28;20504;-40
2022/12/10 06:26:39;;;;;;;1.80;1.60;;;17.90;49.50;;;;;;5050339;28;20125;-40
2022/12/10 06:29:06;;;;;;;4.28;1.80;;;17.90;49.50;;;;;;5050459;28;20083;-40
2022/12/10 06:31:34;;;;;;;1.85;1.75;;;17.90;49.50;;;;;;5050206;28;20132;-40
2022/12/10 06:34:02;;;;;;;2.40;1.92;;;17.90;49.50;;;;;;5049703;28;20057;-40
2022/12/10 06:36:29;;;;;;;1.67;1.58;;;18.00;49.60;;;;;;5050034;28;20136;-40
2022/12/10 06:38:56;;;;;;;1.42;1.35;;;18.00;49.50;;;;;;5049985;28;20140;-40
2022/12/10 06:41:23;;;;;;;2.00;1.90;;;17.90;49.40;;;;;;5050077;28;20444;-40
2022/12/10 06:43:50;;;;;;;1.88;1.40;;;18.00;49.50;;;;;;5050262;28;20533;-41
2022/12/10 06:46:19;;;;;;;1.67;1.55;;;17.90;49.40;;;;;;5050169;28;20132;-40
2022/12/10 06:48:47;;;;;;;2.08;1.90;;;18.00;49.60;;;;;;5050264;28;20677;-41
2022/12/10 06:51:17;;;;;;;2.03;1.77;;;17.90;49.50;;;;;;5050733;28;20052;-48
2022/12/10 06:53:44;;;;;;;1.13;0.93;;;18.00;49.50;;;;;;5050312;28;20751;-45
2022/12/10 06:56:13;;;;;;;2.78;1.42;;;17.90;49.40;;;;;;5050362;28;20041;-40
2022/12/10 06:58:41;;;;;;;1.33;1.23;;;17.90;49.40;;;;;;5050010;28;20080;-40
2022/12/10 07:01:11;;;;;;;1.50;1.40;;;17.90;49.40;;;;;;5049670;28;20047;-40
2022/12/10 07:03:39;;;;;;;1.60;1.50;;;18.00;49.60;;;;;;5049010;28;20049;-40
2022/12/10 07:06:07;;;;;;;1.25;1.25;;;17.90;49.40;;;;;;5049627;28;20036;-40
2022/12/10 07:08:37;;;;;;;1.38;0.90;;;17.90;49.40;;;;;;5049241;28;20049;-40
2022/12/10 07:11:05;;;;;;;1.60;1.00;;;17.90;49.30;;;;;;5049460;28;20052;-40
2022/12/10 07:13:32;;;;;;;2.55;1.35;;;17.90;49.30;;;;;;5049369;28;20500;-44
2022/12/10 07:16:00;;;;;;;1.83;1.73;;;17.90;49.30;;;;;;5049015;28;20056;-40
2022/12/10 07:18:28;;;;;;;1.27;1.20;;;17.90;49.30;;;;;;5048707;28;20129;-42
2022/12/10 07:20:55;;;;;;;1.13;0.90;;;17.90;49.30;;;;;;5049080;28;20049;-42
2022/12/10 07:23:23;;;;;;;1.08;0.98;;;17.90;49.80;;;;;;5049029;28;20144;-42
2022/12/10 07:25:51;;;;;;;1.33;1.27;;;17.90;49.20;;;;;;5048252;28;20068;-42
2022/12/10 07:28:18;;;;;;;2.25;1.27;;;17.90;49.20;;;;;;5048854;28;20110;-42
2022/12/10 07:30:45;;;;;;;2.10;1.65;;;17.90;49.20;;;;;;5048746;28;20829;-42
2022/12/10 07:33:13;;;;;;;1.63;1.52;;;17.90;49.20;;;;;;5048761;28;20049;-42
2022/12/10 07:35:40;;;;;;;4.20;2.42;;;17.90;49.20;;;;;;5048640;28;20061;-42
2022/12/10 07:38:07;;;;;;;2.58;1.85;;;17.90;49.20;;;;;;5048681;28;20051;-42
2022/12/10 07:40:34;;;;;;;3.72;2.05;;;17.90;49.10;;;;;;5048909;28;20128;-43
2022/12/10 07:43:03;;;;;;;2.15;1.52;;;17.90;49.10;;;;;;5048834;28;20120;-42
2022/12/10 07:45:30;;;;;;;4.38;3.20;;;17.90;49.10;;;;;;5048108;28;20048;-43
2022/12/10 07:47:57;;;;;;;2.13;1.50;;;17.90;49.10;;;;;;5048363;28;20052;-42
2022/12/10 07:50:24;;;;;;;2.72;1.88;;;17.90;49.10;;;;;;5048245;28;20072;-42
2022/12/10 07:52:51;;;;;;;3.28;1.95;;;17.90;49.10;;;;;;5048014;28;20139;-42
2022/12/10 07:55:18;;;;;;;2.95;1.65;;;17.90;49.10;;;;;;5047857;28;20053;-43
2022/12/10 07:57:45;;;;;;;1.55;1.45;;;17.90;49.10;;;;;;5048056;28;20179;-42
2022/12/10 08:00:14;;;;;;;1.73;1.33;;;17.90;49.00;;;;;;5047578;28;20072;-42
2022/12/10 08:02:41;;;;;;;2.03;1.50;;;17.90;49.00;;;;;;5048066;28;20124;-42
2022/12/10 08:05:09;;;;;;;1.83;1.25;;;17.90;49.00;;;;;;5044500;28;20193;-41
2022/12/10 08:07:36;;;;;;;3.00;1.10;;;18.00;49.00;;;;;;5047433;28;20040;-42
2022/12/10 08:10:04;;;;;;;1.20;1.10;;;18.00;49.00;;;;;;5045452;28;20132;-40
2022/12/10 08:12:31;;;;;;;1.88;1.77;;;18.00;49.10;;;;;;5028122;28;20045;-40
2022/12/10 08:14:58;;;;;;;1.17;1.10;;;18.00;49.00;;;;;;5027771;28;20060;-41
2022/12/10 08:17:26;;;;;;;4.00;1.75;;;18.00;49.00;;;;;;5043243;28;20477;-40
2022/12/10 08:19:54;;;;;;;1.63;1.23;;;18.00;49.00;;;;;;5040751;28;20152;-43
2022/12/10 08:22:21;;;;;;;3.90;1.88;;;18.00;49.00;;;;;;5043328;28;20045;-43
2022/12/10 08:24:48;;;;;;;3.83;0.90;;;18.00;49.00;;;;;;5044392;28;20136;-45
2022/12/10 08:27:16;;;;;;;2.30;1.52;;;18.00;49.00;;;;;;5043875;28;20064;-49
2022/12/10 08:29:43;;;;;;;2.03;0.60;;;18.00;49.10;;;;;;5044587;28;20073;-50
2022/12/10 08:32:10;;;;;;;2.15;1.48;;;18.00;49.40;;;;;;5046262;28;20049;-51
2022/12/10 08:34:39;;;;;;;0.60;0.47;;;18.10;49.90;;;;;;5046177;28;20044;-52
2022/12/10 08:37:06;;;;;;;2.85;0.60;;;18.20;50.10;;;;;;5030623;28;20041;-50
2022/12/10 08:39:33;;;;;;;1.98;0.63;;;18.50;50.10;;;;;;5046304;28;20040;-48
2022/12/10 08:42:00;;;;;;;0.60;0.60;;;18.80;50.00;;;;;;5046382;28;20603;-46
2022/12/10 08:44:27;;;;;;;0.32;0.30;;;19.00;49.60;;;;;;5046384;28;20973;-50
2022/12/10 08:46:54;;;;;;;1.08;0.52;;;19.20;49.40;;;;;;5045874;28;20045;-44
2022/12/10 08:49:21;;;;;;;0.43;0.30;;;19.40;49.20;;;;;;5046256;28;20515;-46
2022/12/10 08:51:50;;;;;;;1.40;0.30;;;19.60;48.70;;;;;;5045719;28;20106;-50
2022/12/10 08:54:17;;;;;;;0.70;0.55;;;19.80;48.60;;;;;;5040383;28;20060;-51
2022/12/10 08:56:44;;;;;;;0.98;0.22;;;19.90;48.40;;;;;;5046225;28;20056;-49
2022/12/10 08:59:11;;;;;;;1.67;0.50;;;20.10;48.20;;;;;;5046013;28;20411;-48
2022/12/10 09:01:38;;;;;;;0.80;0.80;;;20.30;48.00;;;;;;5046454;28;20048;-50
2022/12/10 09:04:05;;;;;;;1.75;0.40;;;20.40;47.80;;;;;;5039332;28;20079;-49
2022/12/10 09:06:33;;;;;;;0.30;0.30;;;20.60;47.60;;;;;;5044529;28;20862;-49
2022/12/10 09:09:01;;;;;;;0.30;0.20;;;20.80;47.50;;;;;;5046334;28;20131;-48
2022/12/10 09:11:31;;;;;;;0.60;0.60;;;20.90;47.20;;;;;;5047027;28;20110;-48
2022/12/10 09:13:59;;;;;;;2.20;0.68;;;21.00;47.10;;;;;;5046253;28;20041;-47
2022/12/10 09:16:30;;;;;;;0.73;0.40;;;21.20;46.90;;;;;;5046276;28;20076;-49
2022/12/10 09:18:57;;;;;;;0.28;0.20;;;21.40;46.90;;;;;;5045724;28;20053;-51
2022/12/10 09:21:24;;;;;;;1.52;0.50;;;21.40;46.80;;;;;;5046206;28;20061;-49
2022/12/10 09:23:52;;;;;;;3.45;1.17;;;21.50;46.60;;;;;;5045575;28;20076;-48
2022/12/10 09:26:21;;;;;;;4.10;0.82;;;21.70;44.90;;;;;;5045966;28;20041;-51
2022/12/10 09:28:48;;;;;;;1.17;1.05;;;21.80;44.30;;;;;;5045626;28;20052;-48
2022/12/10 09:31:18;;;;;;;0.60;0.45;;;22.00;43.80;;;;;;5046341;28;20041;-51
2022/12/10 09:33:46;;;;;;;2.58;0.82;;;22.20;44.40;;;;;;5044593;28;20064;-50
2022/12/10 09:36:14;;;;;;;1.60;1.02;;;22.40;44.20;;;;;;5046090;28;20056;-52
2022/12/10 09:38:44;;;;;;;5.22;1.08;;;22.50;44.00;;;;;;5044287;28;20496;-49
2022/12/10 09:41:36;;;;;;;0.52;0.47;;;22.70;43.60;;;;;;5045899;28;20045;-47
2022/12/10 09:44:09;;;;;;;0.50;0.47;;;22.80;44.00;;;;;;5045975;28;20087;-46
2022/12/10 09:46:45;;;;;;;0.65;0.60;;;23.00;44.00;;;;;;5046135;28;20068;-45
2022/12/10 09:49:21;;;;;;;1.50;0.85;;;23.20;43.70;;;;;;5048457;28;20037;-46
2022/12/10 09:51:48;;;;;;;1.88;0.77;;;23.30;42.80;;;;;;5049493;28;20033;-44
2022/12/10 09:54:22;;;;;;;1.92;1.70;;;23.30;42.00;;;;;;5049233;28;20119;-47
2022/12/10 09:56:52;;;;;;;1.02;1.02;;;23.30;41.20;;;;;;5039423;28;20061;-47
2022/12/10 09:59:24;;;;;;;1.80;1.55;;;23.30;40.50;;;;;;5049701;28;20037;-48
2022/12/10 10:02:02;;;;;;;2.22;2.03;;;23.30;40.40;;;;;;5049268;28;20045;-42
2022/12/10 10:04:30;;;;;;;1.70;1.60;;;23.20;40.40;;;;;;5049177;28;20146;-42
2022/12/10 10:06:58;;;;;;;4.07;1.98;;;23.20;39.80;;;;;;5049077;28;20041;-44
2022/12/10 10:09:25;;;;;;;2.13;1.85;;;23.20;40.20;;;;;;5049049;28;20496;-44
2022/12/10 10:11:54;;;;;;;3.50;1.85;;;23.10;39.50;;;;;;5045597;28;20461;-43
2022/12/10 10:14:27;;;;;;;10.57;1.60;;;23.00;40.70;;;;;;5048530;28;20055;-42
2022/12/10 10:17:00;;;;;;;1.35;0.82;;;23.00;40.80;;;;;;5052666;28;20041;-42
2022/12/10 10:19:29;;;;;;;1.67;1.58;;;22.90;40.80;;;;;;5035396;28;20101;-42
2022/12/10 10:21:57;;;;;;;0.95;0.75;;;22.80;40.80;;;;;;5037885;28;20037;-43
2022/12/10 10:24:29;;;;;;;2.13;1.33;;;22.70;40.80;;;;;;5037028;28;20045;-43
2022/12/10 10:26:59;;;;;;;2.67;1.17;;;22.60;41.00;;;;;;5047757;28;20051;-43
2022/12/10 10:29:26;;;;;;;1.73;1.25;;;22.60;41.10;;;;;;5057894;28;20045;-43
2022/12/10 10:32:15;;;;;;;1.38;1.27;;;22.40;41.20;;;;;;5059249;28;20051;-43
2022/12/10 10:34:43;;;;;;;1.38;1.33;;;22.40;41.30;;;;;;5057288;28;20440;-42
2022/12/10 10:37:19;;;;;;;1.10;1.02;;;22.30;42.00;;;;;;5058963;28;20139;-43
2022/12/10 10:39:50;;;;;;;;;;;22.20;41.40;;;;;;5059524;28;20051;-42
2022/12/10 10:42:28;;;;;;;2.03;1.15;;;22.10;41.60;;;;;;5055588;28;19931;-43
2022/12/10 10:44:55;;;;;;;3.40;2.47;;;22.00;41.60;;;;;;5059618;28;20049;-43
2022/12/10 10:47:28;;;;;;;2.40;1.92;;;22.00;41.50;;;;;;5050620;28;20128;-43
2022/12/10 10:49:56;;;;;;;1.63;1.52;;;22.00;41.50;;;;;;5047429;28;20460;-43
2022/12/10 10:52:23;;;;;;;0.95;0.73;;;21.90;41.50;;;;;;5048412;28;20119;-43
2022/12/10 10:54:50;;;;;;;3.25;1.88;;;21.80;41.50;;;;;;5055120;28;20142;-43
2022/12/10 10:57:23;;;;;;;2.65;1.52;;;21.80;41.40;;;;;;5039624;28;20086;-43
2022/12/10 10:59:54;;;;;;;1.20;1.13;;;21.70;41.30;;;;;;5047243;28;20148;-42
2022/12/10 11:02:27;;;;;;;2.53;2.28;;;21.70;41.30;;;;;;5048423;28;20508;-43
2022/12/10 11:04:58;;;;;;;1.58;1.45;;;21.60;41.20;;;;;;5046602;28;20041;-42
2022/12/10 11:07:34;;;;;;;3.85;1.45;;;21.60;41.10;;;;;;5047937;28;20048;-42
2022/12/10 11:10:02;;;;;;;;;;;21.50;40.90;;;;;;5044685;28;20734;-42
2022/12/10 11:12:35;;;;;;;1.67;1.58;;;21.50;41.30;;;;;;5045155;28;19935;-43
2022/12/10 11:15:14;;;;;;;3.78;1.83;;;21.40;41.20;;;;;;5047378;28;20095;-42
2022/12/10 11:17:48;;;;;;;1.27;1.10;;;21.40;41.40;;;;;;5047528;28;20041;-42
2022/12/10 11:20:19;;;;;;;1.27;0.95;;;21.40;41.40;;;;;;5043861;28;20536;-42
2022/12/10 11:22:51;;;;;;;2.05;1.10;;;21.40;41.90;;;;;;5050164;28;20691;-43
2022/12/10 11:25:20;;;;;;;2.60;1.55;;;21.50;41.90;;;;;;5048586;28;20045;-43
2022/12/10 11:27:56;;;;;;;4.13;2.03;;;21.50;41.80;;;;;;5050348;28;20147;-43
2022/12/10 11:30:27;;;;;;;3.38;2.05;;;21.50;41.40;;;;;;5047513;28;20534;-42
2022/12/10 11:33:05;;;;;;;6.35;2.83;;;21.60;41.40;;;;;;5048220;28;20568;-43
2022/12/10 11:35:45;;;;;;;3.33;1.63;;;21.60;41.90;;;;;;5048323;28;20045;-42
2022/12/10 11:38:22;;;;;;;3.75;1.60;;;21.60;41.30;;;;;;5044413;28;20083;-43
2022/12/10 11:40:56;;;;;;;9.75;2.08;;;21.60;41.50;;;;;;5046774;28;20044;-44
2022/12/10 11:43:47;;;;;;;1.98;1.13;;;21.70;41.50;;;;;;5047535;28;20090;-47
2022/12/10 11:46:36;;;;;;;3.78;1.75;;;21.80;41.60;;;;;;5048192;28;20049;-43
2022/12/10 11:49:16;;;;;;;5.95;2.05;;;21.80;41.70;;;;;;5047791;28;20037;-43
2022/12/10 11:51:51;;;;;;;13.65;2.75;;;21.80;42.10;;;;;;5047700;28;20069;-42
2022/12/10 11:54:32;;;;;;;4.40;1.73;;;21.80;42.20;;;;;;5047873;28;20064;-44
2022/12/10 11:57:08;;;;;;;3.38;1.35;;;21.90;42.50;;;;;;5048070;28;20055;-42
2022/12/10 11:59:42;;;;;;;1.30;1.00;;;21.90;42.90;;;;;;5047928;28;20045;-43
2022/12/10 12:02:31;;;;;;;5.35;1.50;;;22.00;42.80;;;;;;5046327;28;20045;-43
2022/12/10 12:05:14;;;;;;;3.83;1.55;;;22.00;42.40;;;;;;5028013;28;20591;-42
2022/12/10 12:07:49;;;;;;;3.15;1.17;;;22.10;42.20;;;;;;5027504;28;20049;-43
2022/12/10 12:10:45;;;;;;;2.03;1.15;;;22.10;42.10;;;;;;5027545;28;20045;-43
2022/12/10 12:13:17;;;;;;;3.22;1.23;;;22.10;42.00;;;;;;5017721;28;20823;-43
2022/12/10 12:15:50;;;;;;;1.92;0.98;;;22.10;41.90;;;;;;5027808;28;20116;-43
2022/12/10 12:18:23;;;;;;;1.70;1.27;;;22.20;42.10;;;;;;5036516;28;20773;-43
2022/12/10 12:20:55;;;;;;;2.92;1.27;;;22.20;41.80;;;;;;5046933;28;20037;-44
2022/12/10 12:23:27;;;;;;;3.70;1.17;;;22.20;41.70;;;;;;5045765;28;20053;-44
2022/12/10 12:25:59;;;;;;;3.33;1.10;;;22.30;41.70;;;;;;5047566;28;20114;-43
2022/12/10 12:28:32;;;;;;;2.05;1.52;;;22.30;41.90;;;;;;5047572;28;20052;-43
2022/12/10 12:31:04;;;;;;;3.88;1.50;;;22.30;41.60;;;;;;5047464;28;20064;-43
2022/12/10 12:33:42;;;;;;;2.22;0.85;;;22.30;41.70;;;;;;5047275;28;20041;-44
2022/12/10 12:36:14;;;;;;;1.17;0.90;;;22.30;41.60;;;;;;5047084;28;20146;-43
2022/12/10 12:38:50;;;;;;;2.25;0.82;;;22.30;41.50;;;;;;5047260;28;20045;-43
2022/12/10 12:41:27;;;;;;;1.95;0.70;;;22.40;41.80;;;;;;5047372;28;20063;-43
2022/12/10 12:44:01;;;;;;;3.20;1.10;;;22.40;41.80;;;;;;5046885;28;20094;-43
2022/12/10 12:46:36;;;;;;;2.05;0.57;;;22.40;41.50;;;;;;5047308;28;20041;-42
2022/12/10 12:49:15;;;;;;;1.60;1.20;;;22.40;41.30;;;;;;5047076;28;20040;-43
2022/12/10 12:51:49;;;;;;;1.50;1.10;;;22.40;41.20;;;;;;5047083;28;20209;-41
2022/12/10 12:54:16;;;;;;;0.68;0.68;;;22.40;40.80;;;;;;5045629;28;20041;-43
2022/12/10 12:56:58;;;;;;;2.15;0.80;;;22.30;40.70;;;;;;5047143;28;20599;-43
2022/12/10 12:59:39;;;;;;;1.90;1.55;;;22.30;40.50;;;;;;5047215;28;20041;-43
2022/12/10 13:02:20;;;;;;;1.52;0.60;;;22.30;40.30;;;;;;5045736;28;20052;-43
2022/12/10 13:04:48;;;;;;;2.35;1.15;;;22.30;40.50;;;;;;5046388;28;20037;-43
2022/12/10 13:07:32;;;;;;;5.82;1.10;;;22.30;40.50;;;;;;5046062;28;20041;-44
2022/12/10 13:10:26;;;;;;;0.80;0.70;;;22.30;40.40;;;;;;5046643;28;20099;-43
2022/12/10 13:13:17;;;;;;;1.70;0.55;;;22.20;39.20;;;;;;5046254;28;20049;-43
2022/12/10 13:15:44;;;;;;;2.15;1.20;;;22.20;38.30;;;;;;5046808;28;20041;-41
2022/12/10 13:18:39;;;;;;;2.45;1.80;;;22.10;38.00;;;;;;5046891;28;20051;-43